sensor_id;sensor_type;location;lat;lon;timestamp;pressure;altitude;pressure_sealevel;temperature;humidity
9935;BME280;5006;41.828;23.478;2023-12-20T00:00:06;90654.09;;;2.44;100.00
9935;BME280;5006;41.828;23.478;2023-12-20T00:01:12;90654.22;;;2.47;100.00
9935;BME280;5006;41.828;23.478;2023-12-20T00:02:19;90652.06;;;2.29;100.00
9935;BME280;5006;41.828;23.478;2023-12-20T00:03:27;90651.84;;;2.34;100.00
9935;BME280;5006;41.828;23.478;2023-12-20T00:04:33;90652.97;;;2.33;100.00
9935;BME280;5006;41.828;23.478;2023-12-20T00:05:39;90652.31;;;1.92;100.00
9935;BME280;5006;41.828;23.478;2023-12-20T00:06:45;90656.66;;;2.08;100.00
9935;BME280;5006;41.828;23.478;2023-12-20T00:07:52;90655.50;;;1.97;100.00
9935;BME280;5006;41.828;23.478;2023-12-20T00:08:57;90650.75;;;1.91;100.00
9935;BME280;5006;41.828;23.478;2023-12-20T00:10:05;90654.41;;;1.86;100.00
9935;BME280;5006;41.828;23.478;2023-12-20T00:11:10;90654.44;;;1.78;100.00
9935;BME280;5006;41.828;23.478;2023-12-20T00:12:16;90648.28;;;1.74;100.00
9935;BME280;5006;41.828;23.478;2023-12-20T00:13:21;90642.72;;;1.87;100.00
9935;BME280;5006;41.828;23.478;2023-12-20T00:14:28;90640.91;;;1.79;100.00
9935;BME280;5006;41.828;23.478;2023-12-20T00:15:33;90644.66;;;1.78;100.00
9935;BME280;5006;41.828;23.478;2023-12-20T00:16:40;90637.88;;;1.89;100.00
9935;BME280;5006;41.828;23.478;2023-12-20T00:17:45;90641.28;;;1.90;100.00
9935;BME280;5006;41.828;23.478;2023-12-20T00:18:53;90646.59;;;2.02;100.00
9935;BME280;5006;41.828;23.478;2023-12-20T00:19:58;90650.22;;;1.97;100.00
9935;BME280;5006;41.828;23.478;2023-12-20T00:21:06;90632.19;;;1.99;100.00
9935;BME280;5006;41.828;23.478;2023-12-20T00:22:11;90640.59;;;2.13;100.00
9935;BME280;5006;41.828;23.478;2023-12-20T00:23:17;90631.09;;;2.00;100.00
9935;BME280;5006;41.828;23.478;2023-12-20T00:24:22;90633.72;;;2.00;100.00
9935;BME280;5006;41.828;23.478;2023-12-20T00:25:28;90632.34;;;2.26;100.00
9935;BME280;5006;41.828;23.478;2023-12-20T00:26:33;90626.03;;;2.19;100.00
9935;BME280;5006;41.828;23.478;2023-12-20T00:27:40;90629.81;;;2.30;100.00
9935;BME280;5006;41.828;23.478;2023-12-20T00:28:46;90625.34;;;1.98;100.00
9935;BME280;5006;41.828;23.478;2023-12-20T00:29:52;90625.00;;;2.00;100.00
9935;BME280;5006;41.828;23.478;2023-12-20T00:30:57;90626.50;;;1.89;100.00
9935;BME280;5006;41.828;23.478;2023-12-20T00:32:04;90620.00;;;2.18;100.00
9935;BME280;5006;41.828;23.478;2023-12-20T00:33:09;90623.28;;;2.27;100.00
9935;BME280;5006;41.828;23.478;2023-12-20T00:34:17;90620.00;;;2.42;100.00
9935;BME280;5006;41.828;23.478;2023-12-20T00:35:22;90623.19;;;2.12;100.00
9935;BME280;5006;41.828;23.478;2023-12-20T00:36:28;90616.19;;;1.96;100.00
9935;BME280;5006;41.828;23.478;2023-12-20T00:37:33;90625.84;;;1.80;100.00
9935;BME280;5006;41.828;23.478;2023-12-20T00:38:40;90612.97;;;1.90;100.00
9935;BME280;5006;41.828;23.478;2023-12-20T00:39:45;90609.19;;;1.79;100.00
9935;BME280;5006;41.828;23.478;2023-12-20T00:40:51;90606.63;;;2.03;100.00
9935;BME280;5006;41.828;23.478;2023-12-20T00:41:57;90618.31;;;2.02;100.00
9935;BME280;5006;41.828;23.478;2023-12-20T00:43:04;90623.06;;;2.08;100.00
9935;BME280;5006;41.828;23.478;2023-12-20T00:44:09;90607.94;;;2.09;100.00
9935;BME280;5006;41.828;23.478;2023-12-20T00:45:15;90614.25;;;2.16;100.00
9935;BME280;5006;41.828;23.478;2023-12-20T00:46:20;90616.44;;;2.14;100.00
9935;BME280;5006;41.828;23.478;2023-12-20T00:47:26;90613.06;;;2.26;100.00
9935;BME280;5006;41.828;23.478;2023-12-20T00:48:31;90613.88;;;1.94;100.00
9935;BME280;5006;41.828;23.478;2023-12-20T00:49:39;90614.03;;;2.09;100.00
9935;BME280;5006;41.828;23.478;2023-12-20T00:50:44;90616.53;;;2.06;100.00
9935;BME280;5006;41.828;23.478;2023-12-20T00:51:51;90611.38;;;2.09;100.00
9935;BME280;5006;41.828;23.478;2023-12-20T00:52:57;90616.88;;;2.16;100.00
9935;BME280;5006;41.828;23.478;2023-12-20T00:54:04;90616.00;;;2.12;100.00
9935;BME280;5006;41.828;23.478;2023-12-20T00:55:10;90616.00;;;2.12;100.00
9935;BME280;5006;41.828;23.478;2023-12-20T00:56:15;90612.47;;;2.08;100.00
9935;BME280;5006;41.828;23.478;2023-12-20T00:57:22;90609.28;;;2.15;100.00
9935;BME280;5006;41.828;23.478;2023-12-20T00:58:28;90604.66;;;2.12;100.00
9935;BME280;5006;41.828;23.478;2023-12-20T00:59:34;90606.78;;;2.18;100.00
9935;BME280;5006;41.828;23.478;2023-12-20T01:00:39;90606.00;;;2.30;100.00
9935;BME280;5006;41.828;23.478;2023-12-20T01:01:46;90611.13;;;2.03;100.00
9935;BME280;5006;41.828;23.478;2023-12-20T01:02:51;90611.38;;;2.09;100.00
9935;BME280;5006;41.828;23.478;2023-12-20T01:03:57;90601.22;;;2.11;100.00
9935;BME280;5006;41.828;23.478;2023-12-20T01:05:04;90600.25;;;2.16;100.00
9935;BME280;5006;41.828;23.478;2023-12-20T01:06:11;90598.03;;;2.06;100.00
9935;BME280;5006;41.828;23.478;2023-12-20T01:07:17;90598.03;;;2.06;100.00
9935;BME280;5006;41.828;23.478;2023-12-20T01:08:23;90596.06;;;2.15;100.00
9935;BME280;5006;41.828;23.478;2023-12-20T01:09:29;90594.97;;;2.16;100.00
9935;BME280;5006;41.828;23.478;2023-12-20T01:10:35;90593.97;;;2.08;100.00
9935;BME280;5006;41.828;23.478;2023-12-20T01:11:41;90594.94;;;2.04;100.00
9935;BME280;5006;41.828;23.478;2023-12-20T01:12:47;90603.66;;;2.16;100.00
9935;BME280;5006;41.828;23.478;2023-12-20T01:13:52;90603.22;;;2.14;100.00
9935;BME280;5006;41.828;23.478;2023-12-20T01:14:58;90590.69;;;2.23;100.00
9935;BME280;5006;41.828;23.478;2023-12-20T01:16:04;90593.63;;;2.22;100.00
9935;BME280;5006;41.828;23.478;2023-12-20T01:17:11;90587.47;;;2.18;100.00
9935;BME280;5006;41.828;23.478;2023-12-20T01:18:16;90590.44;;;2.16;100.00
9935;BME280;5006;41.828;23.478;2023-12-20T01:19:24;90587.25;;;2.11;100.00
9935;BME280;5006;41.828;23.478;2023-12-20T01:20:31;90587.25;;;2.11;100.00
9935;BME280;5006;41.828;23.478;2023-12-20T01:21:37;90582.50;;;2.16;100.00
9935;BME280;5006;41.828;23.478;2023-12-20T01:22:42;90583.59;;;2.15;100.00
9935;BME280;5006;41.828;23.478;2023-12-20T01:23:50;90583.56;;;2.03;100.00
9935;BME280;5006;41.828;23.478;2023-12-20T01:24:55;90573.66;;;2.01;100.00
9935;BME280;5006;41.828;23.478;2023-12-20T01:26:03;90578.09;;;2.08;100.00
9935;BME280;5006;41.828;23.478;2023-12-20T01:27:09;90572.38;;;2.18;100.00
9935;BME280;5006;41.828;23.478;2023-12-20T01:28:17;90570.91;;;2.09;100.00
9935;BME280;5006;41.828;23.478;2023-12-20T01:29:22;90568.41;;;2.12;100.00
9935;BME280;5006;41.828;23.478;2023-12-20T01:30:28;90565.06;;;2.03;100.00
9935;BME280;5006;41.828;23.478;2023-12-20T01:31:33;90569.34;;;1.84;100.00
9935;BME280;5006;41.828;23.478;2023-12-20T01:32:39;90561.97;;;2.02;100.00
9935;BME280;5006;41.828;23.478;2023-12-20T01:33:46;90557.06;;;2.24;100.00
9935;BME280;5006;41.828;23.478;2023-12-20T01:34:52;90562.44;;;2.15;100.00
9935;BME280;5006;41.828;23.478;2023-12-20T01:36:00;90560.13;;;2.14;100.00
9935;BME280;5006;41.828;23.478;2023-12-20T01:37:06;90558.72;;;2.05;100.00
9935;BME280;5006;41.828;23.478;2023-12-20T01:38:11;90567.06;;;2.07;100.00
9935;BME280;5006;41.828;23.478;2023-12-20T01:39:17;90554.38;;;1.88;100.00
9935;BME280;5006;41.828;23.478;2023-12-20T01:40:22;90554.72;;;1.99;100.00
9935;BME280;5006;41.828;23.478;2023-12-20T01:41:28;90554.03;;;1.90;100.00
9935;BME280;5006;41.828;23.478;2023-12-20T01:42:33;90554.13;;;1.81;100.00
9935;BME280;5006;41.828;23.478;2023-12-20T01:43:39;90548.09;;;1.93;100.00
9935;BME280;5006;41.828;23.478;2023-12-20T01:44:45;90545.69;;;2.00;100.00
9935;BME280;5006;41.828;23.478;2023-12-20T01:45:52;90545.91;;;2.07;100.00
9935;BME280;5006;41.828;23.478;2023-12-20T01:46:58;90551.72;;;1.88;100.00
9935;BME280;5006;41.828;23.478;2023-12-20T01:48:05;90544.81;;;1.96;100.00
9935;BME280;5006;41.828;23.478;2023-12-20T01:49:13;90552.94;;;1.91;100.00
9935;BME280;5006;41.828;23.478;2023-12-20T01:50:20;90535.75;;;1.85;100.00
9935;BME280;5006;41.828;23.478;2023-12-20T01:51:28;90540.06;;;2.01;100.00
9935;BME280;5006;41.828;23.478;2023-12-20T01:52:34;90539.50;;;1.84;100.00
9935;BME280;5006;41.828;23.478;2023-12-20T01:53:41;90541.50;;;1.99;100.00
9935;BME280;5006;41.828;23.478;2023-12-20T01:54:49;90532.78;;;1.86;100.00
9935;BME280;5006;41.828;23.478;2023-12-20T01:55:55;90536.22;;;1.99;100.00
9935;BME280;5006;41.828;23.478;2023-12-20T01:57:03;90540.06;;;1.89;100.00
9935;BME280;5006;41.828;23.478;2023-12-20T01:58:09;90531.59;;;1.96;100.00
9935;BME280;5006;41.828;23.478;2023-12-20T01:59:18;90528.72;;;2.01;100.00
9935;BME280;5006;41.828;23.478;2023-12-20T02:00:24;90532.25;;;2.05;100.00
9935;BME280;5006;41.828;23.478;2023-12-20T02:01:33;90527.59;;;1.90;100.00
9935;BME280;5006;41.828;23.478;2023-12-20T02:02:39;90528.16;;;1.95;100.00
9935;BME280;5006;41.828;23.478;2023-12-20T02:03:47;90528.06;;;1.92;100.00
9935;BME280;5006;41.828;23.478;2023-12-20T02:04:52;90534.78;;;2.01;100.00
9935;BME280;5006;41.828;23.478;2023-12-20T02:05:58;90525.63;;;1.87;100.00
9935;BME280;5006;41.828;23.478;2023-12-20T02:07:05;90522.78;;;1.92;100.00
9935;BME280;5006;41.828;23.478;2023-12-20T02:08:12;90523.22;;;1.94;100.00
9935;BME280;5006;41.828;23.478;2023-12-20T02:09:18;90519.47;;;2.07;100.00
9935;BME280;5006;41.828;23.478;2023-12-20T02:10:24;90521.00;;;1.96;100.00
9935;BME280;5006;41.828;23.478;2023-12-20T02:11:30;90515.84;;;1.99;100.00
9935;BME280;5006;41.828;23.478;2023-12-20T02:12:37;90510.63;;;1.91;100.00
9935;BME280;5006;41.828;23.478;2023-12-20T02:13:44;90507.34;;;1.94;100.00
9935;BME280;5006;41.828;23.478;2023-12-20T02:14:50;90511.75;;;2.02;100.00
9935;BME280;5006;41.828;23.478;2023-12-20T02:15:56;90510.66;;;2.14;100.00
9935;BME280;5006;41.828;23.478;2023-12-20T02:17:03;90507.78;;;1.84;100.00
9935;BME280;5006;41.828;23.478;2023-12-20T02:18:08;90507.97;;;1.91;100.00
9935;BME280;5006;41.828;23.478;2023-12-20T02:19:15;90504.91;;;1.89;100.00
9935;BME280;5006;41.828;23.478;2023-12-20T02:20:23;90506.25;;;1.95;100.00
9935;BME280;5006;41.828;23.478;2023-12-20T02:21:33;90510.63;;;1.91;100.00
9935;BME280;5006;41.828;23.478;2023-12-20T02:22:38;90504.69;;;1.94;100.00
9935;BME280;5006;41.828;23.478;2023-12-20T02:23:44;90496.53;;;1.99;100.00
9935;BME280;5006;41.828;23.478;2023-12-20T02:24:49;90500.84;;;2.03;100.00
9935;BME280;5006;41.828;23.478;2023-12-20T02:25:55;90500.16;;;1.94;100.00
9935;BME280;5006;41.828;23.478;2023-12-20T02:27:01;90509.97;;;1.82;100.00
9935;BME280;5006;41.828;23.478;2023-12-20T02:28:07;90510.53;;;1.75;100.00
9935;BME280;5006;41.828;23.478;2023-12-20T02:29:14;90506.56;;;1.93;100.00
9935;BME280;5006;41.828;23.478;2023-12-20T02:30:20;90514.94;;;2.07;100.00
9935;BME280;5006;41.828;23.478;2023-12-20T02:31:26;90502.72;;;2.14;100.00
9935;BME280;5006;41.828;23.478;2023-12-20T02:32:32;90502.38;;;2.28;100.00
9935;BME280;5006;41.828;23.478;2023-12-20T02:33:38;90505.91;;;2.20;100.00
9935;BME280;5006;41.828;23.478;2023-12-20T02:34:47;90504.47;;;2.10;100.00
9935;BME280;5006;41.828;23.478;2023-12-20T02:35:53;90501.59;;;2.15;100.00
9935;BME280;5006;41.828;23.478;2023-12-20T02:37:01;90498.75;;;2.20;100.00
9935;BME280;5006;41.828;23.478;2023-12-20T02:38:08;90498.41;;;2.22;100.00
9935;BME280;5006;41.828;23.478;2023-12-20T02:39:14;90502.69;;;2.03;100.00
9935;BME280;5006;41.828;23.478;2023-12-20T02:40:20;90503.06;;;2.01;100.00
9935;BME280;5006;41.828;23.478;2023-12-20T02:41:25;90500.28;;;1.98;100.00
9935;BME280;5006;41.828;23.478;2023-12-20T02:42:31;90503.16;;;1.93;100.00
9935;BME280;5006;41.828;23.478;2023-12-20T02:43:38;90499.19;;;1.99;100.00
9935;BME280;5006;41.828;23.478;2023-12-20T02:44:44;90495.25;;;2.05;100.00
9935;BME280;5006;41.828;23.478;2023-12-20T02:45:49;90490.72;;;2.05;100.00
9935;BME280;5006;41.828;23.478;2023-12-20T02:46:55;90495.31;;;2.08;100.00
9935;BME280;5006;41.828;23.478;2023-12-20T02:48:01;90493.47;;;2.08;100.00
9935;BME280;5006;41.828;23.478;2023-12-20T02:49:07;90488.59;;;1.99;100.00
9935;BME280;5006;41.828;23.478;2023-12-20T02:50:12;90484.66;;;1.93;100.00
9935;BME280;5006;41.828;23.478;2023-12-20T02:51:18;90483.44;;;2.02;100.00
9935;BME280;5006;41.828;23.478;2023-12-20T02:52:27;90483.31;;;1.87;100.00
9935;BME280;5006;41.828;23.478;2023-12-20T02:53:34;90478.69;;;1.96;100.00
9935;BME280;5006;41.828;23.478;2023-12-20T02:54:39;90473.72;;;1.94;100.00
9935;BME280;5006;41.828;23.478;2023-12-20T02:55:45;90480.22;;;1.85;100.00
9935;BME280;5006;41.828;23.478;2023-12-20T02:56:50;90476.81;;;1.84;100.00
9935;BME280;5006;41.828;23.478;2023-12-20T02:57:56;90479.13;;;1.98;100.00
9935;BME280;5006;41.828;23.478;2023-12-20T02:59:01;90472.53;;;1.92;100.00
9935;BME280;5006;41.828;23.478;2023-12-20T03:00:11;90475.16;;;2.03;100.00
9935;BME280;5006;41.828;23.478;2023-12-20T03:01:18;90471.31;;;2.01;100.00
9935;BME280;5006;41.828;23.478;2023-12-20T03:02:24;90468.56;;;2.09;100.00
9935;BME280;5006;41.828;23.478;2023-12-20T03:03:29;90477.59;;;2.08;100.00
9935;BME280;5006;41.828;23.478;2023-12-20T03:04:36;90478.28;;;2.17;100.00
9935;BME280;5006;41.828;23.478;2023-12-20T03:05:42;90475.06;;;2.12;100.00
9935;BME280;5006;41.828;23.478;2023-12-20T03:06:48;90474.28;;;2.23;100.00
9935;BME280;5006;41.828;23.478;2023-12-20T03:07:55;90475.63;;;2.17;100.00
9935;BME280;5006;41.828;23.478;2023-12-20T03:09:01;90474.06;;;2.16;100.00
9935;BME280;5006;41.828;23.478;2023-12-20T03:10:08;90470.22;;;2.14;100.00
9935;BME280;5006;41.828;23.478;2023-12-20T03:11:15;90470.34;;;2.17;100.00
9935;BME280;5006;41.828;23.478;2023-12-20T03:12:21;90461.28;;;2.07;100.00
9935;BME280;5006;41.828;23.478;2023-12-20T03:13:26;90468.13;;;1.96;100.00
9935;BME280;5006;41.828;23.478;2023-12-20T03:14:32;90468.25;;;1.99;100.00
9935;BME280;5006;41.828;23.478;2023-12-20T03:15:37;90463.81;;;2.03;100.00
9935;BME280;5006;41.828;23.478;2023-12-20T03:16:47;90469.78;;;2.24;100.00
9935;BME280;5006;41.828;23.478;2023-12-20T03:17:52;90463.94;;;2.30;100.00
9935;BME280;5006;41.828;23.478;2023-12-20T03:18:58;90462.16;;;2.22;100.00
9935;BME280;5006;41.828;23.478;2023-12-20T03:20:04;90464.50;;;1.88;100.00
9935;BME280;5006;41.828;23.478;2023-12-20T03:21:10;90463.56;;;1.72;100.00
9935;BME280;5006;41.828;23.478;2023-12-20T03:22:15;90472.28;;;1.73;100.00
9935;BME280;5006;41.828;23.478;2023-12-20T03:23:23;90464.38;;;1.85;100.00
9935;BME280;5006;41.828;23.478;2023-12-20T03:24:29;90464.59;;;1.92;100.00
9935;BME280;5006;41.828;23.478;2023-12-20T03:25:35;90461.06;;;1.88;100.00
9935;BME280;5006;41.828;23.478;2023-12-20T03:26:40;90460.50;;;1.82;100.00
9935;BME280;5006;41.828;23.478;2023-12-20T03:27:46;90461.63;;;1.93;100.00
9935;BME280;5006;41.828;23.478;2023-12-20T03:28:51;90458.53;;;2.03;100.00
9935;BME280;5006;41.828;23.478;2023-12-20T03:29:57;90461.19;;;1.91;100.00
9935;BME280;5006;41.828;23.478;2023-12-20T03:31:03;90461.19;;;1.91;100.00
9935;BME280;5006;41.828;23.478;2023-12-20T03:32:10;90459.50;;;1.63;100.00
9935;BME280;5006;41.828;23.478;2023-12-20T03:33:16;90456.44;;;1.85;100.00
9935;BME280;5006;41.828;23.478;2023-12-20T03:34:22;90459.22;;;2.00;100.00
9935;BME280;5006;41.828;23.478;2023-12-20T03:35:27;90465.03;;;1.94;100.00
9935;BME280;5006;41.828;23.478;2023-12-20T03:36:34;90450.72;;;1.95;100.00
9935;BME280;5006;41.828;23.478;2023-12-20T03:37:39;90456.53;;;1.64;100.00
9935;BME280;5006;41.828;23.478;2023-12-20T03:38:47;90460.84;;;1.57;100.00
9935;BME280;5006;41.828;23.478;2023-12-20T03:39:53;90453.47;;;1.74;100.00
9935;BME280;5006;41.828;23.478;2023-12-20T03:40:59;90461.50;;;1.78;100.00
9935;BME280;5006;41.828;23.478;2023-12-20T03:42:04;90457.97;;;1.74;100.00
9935;BME280;5006;41.828;23.478;2023-12-20T03:43:10;90462.16;;;1.75;100.00
9935;BME280;5006;41.828;23.478;2023-12-20T03:44:15;90463.25;;;1.62;100.00
9935;BME280;5006;41.828;23.478;2023-12-20T03:45:20;90460.03;;;1.56;100.00
9935;BME280;5006;41.828;23.478;2023-12-20T03:46:26;90457.66;;;1.63;100.00
9935;BME280;5006;41.828;23.478;2023-12-20T03:47:31;90458.03;;;1.41;100.00
9935;BME280;5006;41.828;23.478;2023-12-20T03:48:37;90460.59;;;1.50;100.00
9935;BME280;5006;41.828;23.478;2023-12-20T03:49:43;90460.59;;;1.62;100.00
9935;BME280;5006;41.828;23.478;2023-12-20T03:50:49;90456.66;;;1.68;100.00
9935;BME280;5006;41.828;23.478;2023-12-20T03:51:54;90457.75;;;1.79;100.00
9935;BME280;5006;41.828;23.478;2023-12-20T03:53:00;90464.47;;;1.76;100.00
9935;BME280;5006;41.828;23.478;2023-12-20T03:54:07;90460.94;;;1.72;100.00
9935;BME280;5006;41.828;23.478;2023-12-20T03:55:13;90455.13;;;1.67;100.00
9935;BME280;5006;41.828;23.478;2023-12-20T03:56:18;90457.53;;;1.60;100.00
9935;BME280;5006;41.828;23.478;2023-12-20T03:57:24;90459.03;;;1.49;100.00
9935;BME280;5006;41.828;23.478;2023-12-20T03:58:30;90463.47;;;1.57;100.00
9935;BME280;5006;41.828;23.478;2023-12-20T03:59:37;90455.88;;;1.67;100.00
9935;BME280;5006;41.828;23.478;2023-12-20T04:00:43;90451.81;;;1.58;100.00
9935;BME280;5006;41.828;23.478;2023-12-20T04:01:48;90454.56;;;1.73;100.00
9935;BME280;5006;41.828;23.478;2023-12-20T04:02:54;90457.09;;;1.82;100.00
9935;BME280;5006;41.828;23.478;2023-12-20T04:03:59;90450.84;;;1.74;100.00
9935;BME280;5006;41.828;23.478;2023-12-20T04:05:05;90456.09;;;1.62;100.00
9935;BME280;5006;41.828;23.478;2023-12-20T04:06:16;90454.22;;;1.75;100.00
9935;BME280;5006;41.828;23.478;2023-12-20T04:07:22;90454.56;;;1.97;100.00
9935;BME280;5006;41.828;23.478;2023-12-20T04:08:29;90451.81;;;2.06;100.00
9935;BME280;5006;41.828;23.478;2023-12-20T04:09:36;90451.16;;;1.97;100.00
9935;BME280;5006;41.828;23.478;2023-12-20T04:10:42;90447.25;;;1.46;100.00
9935;BME280;5006;41.828;23.478;2023-12-20T04:11:49;90447.06;;;1.51;100.00
9935;BME280;5006;41.828;23.478;2023-12-20T04:12:54;90450.84;;;1.74;100.00
9935;BME280;5006;41.828;23.478;2023-12-20T04:14:00;90446.84;;;1.80;100.00
9935;BME280;5006;41.828;23.478;2023-12-20T04:15:06;90447.84;;;2.11;100.00
9935;BME280;5006;41.828;23.478;2023-12-20T04:16:13;90442.00;;;1.94;100.00
9935;BME280;5006;41.828;23.478;2023-12-20T04:17:19;90447.19;;;2.03;100.00
9935;BME280;5006;41.828;23.478;2023-12-20T04:18:27;90435.72;;;2.22;100.00
9935;BME280;5006;41.828;23.478;2023-12-20T04:19:33;90437.25;;;2.11;100.00
9935;BME280;5006;41.828;23.478;2023-12-20T04:20:39;90436.38;;;2.19;100.00
9935;BME280;5006;41.828;23.478;2023-12-20T04:21:44;90435.28;;;2.08;100.00
9935;BME280;5006;41.828;23.478;2023-12-20T04:22:50;90434.38;;;2.16;100.00
9935;BME280;5006;41.828;23.478;2023-12-20T04:23:55;90438.59;;;1.94;100.00
9935;BME280;5006;41.828;23.478;2023-12-20T04:25:03;90437.69;;;2.13;100.00
9935;BME280;5006;41.828;23.478;2023-12-20T04:26:09;90431.72;;;2.16;100.00
9935;BME280;5006;41.828;23.478;2023-12-20T04:27:15;90437.03;;;2.16;100.00
9935;BME280;5006;41.828;23.478;2023-12-20T04:28:20;90437.56;;;2.10;100.00
9935;BME280;5006;41.828;23.478;2023-12-20T04:29:26;90438.81;;;2.01;100.00
9935;BME280;5006;41.828;23.478;2023-12-20T04:30:31;90436.94;;;2.13;100.00
9935;BME280;5006;41.828;23.478;2023-12-20T04:31:37;90427.78;;;1.87;100.00
9935;BME280;5006;41.828;23.478;2023-12-20T04:32:42;90431.78;;;2.05;100.00
9935;BME280;5006;41.828;23.478;2023-12-20T04:33:48;90430.56;;;1.66;100.00
9935;BME280;5006;41.828;23.478;2023-12-20T04:34:53;90431.09;;;1.60;100.00
9935;BME280;5006;41.828;23.478;2023-12-20T04:35:58;90420.09;;;1.82;100.00
9935;BME280;5006;41.828;23.478;2023-12-20T04:37:06;90429.34;;;1.76;100.00
9935;BME280;5006;41.828;23.478;2023-12-20T04:38:13;90428.03;;;1.94;100.00
9935;BME280;5006;41.828;23.478;2023-12-20T04:39:18;90424.28;;;1.95;100.00
9935;BME280;5006;41.828;23.478;2023-12-20T04:40:26;90421.19;;;1.93;100.00
9935;BME280;5006;41.828;23.478;2023-12-20T04:41:31;90421.72;;;2.10;100.00
9935;BME280;5006;41.828;23.478;2023-12-20T04:42:38;90418.28;;;2.33;100.00
9935;BME280;5006;41.828;23.478;2023-12-20T04:43:43;90420.25;;;2.36;100.00
9935;BME280;5006;41.828;23.478;2023-12-20T04:44:49;90421.81;;;2.13;100.00
9935;BME280;5006;41.828;23.478;2023-12-20T04:45:55;90421.63;;;1.83;100.00
9935;BME280;5006;41.828;23.478;2023-12-20T04:47:02;90418.09;;;1.91;100.00
9935;BME280;5006;41.828;23.478;2023-12-20T04:48:08;90421.63;;;1.83;100.00
9935;BME280;5006;41.828;23.478;2023-12-20T04:49:14;90423.84;;;1.93;100.00
9935;BME280;5006;41.828;23.478;2023-12-20T04:50:21;90414.44;;;2.07;100.00
9935;BME280;5006;41.828;23.478;2023-12-20T04:51:28;90415.44;;;2.14;100.00
9935;BME280;5006;41.828;23.478;2023-12-20T04:52:34;90414.97;;;2.24;100.00
9935;BME280;5006;41.828;23.478;2023-12-20T04:53:40;90404.63;;;2.31;100.00
9935;BME280;5006;41.828;23.478;2023-12-20T04:54:46;90416.22;;;2.03;100.00
9935;BME280;5006;41.828;23.478;2023-12-20T04:55:54;90417.66;;;2.01;100.00
9935;BME280;5006;41.828;23.478;2023-12-20T04:57:00;90416.66;;;2.05;100.00
9935;BME280;5006;41.828;23.478;2023-12-20T04:58:05;90405.25;;;2.28;100.00
9935;BME280;5006;41.828;23.478;2023-12-20T04:59:11;90407.91;;;2.28;100.00
9935;BME280;5006;41.828;23.478;2023-12-20T05:00:17;90406.91;;;2.33;100.00
9935;BME280;5006;41.828;23.478;2023-12-20T05:01:22;90411.00;;;2.30;100.00
9935;BME280;5006;41.828;23.478;2023-12-20T05:02:28;90402.22;;;2.14;100.00
9935;BME280;5006;41.828;23.478;2023-12-20T05:03:34;90409.72;;;1.89;100.00
9935;BME280;5006;41.828;23.478;2023-12-20T05:04:40;90408.84;;;1.85;100.00
9935;BME280;5006;41.828;23.478;2023-12-20T05:05:47;90404.69;;;1.84;100.00
9935;BME280;5006;41.828;23.478;2023-12-20T05:06:53;90404.44;;;2.01;100.00
9935;BME280;5006;41.828;23.478;2023-12-20T05:07:59;90402.03;;;1.84;100.00
9935;BME280;5006;41.828;23.478;2023-12-20T05:09:05;90406.34;;;1.76;100.00
9935;BME280;5006;41.828;23.478;2023-12-20T05:10:12;90404.00;;;1.87;100.00
9935;BME280;5006;41.828;23.478;2023-12-20T05:11:20;90398.25;;;2.08;100.00
9935;BME280;5006;41.828;23.478;2023-12-20T05:12:25;90400.66;;;2.13;100.00
9935;BME280;5006;41.828;23.478;2023-12-20T05:13:31;90402.69;;;2.05;100.00
9935;BME280;5006;41.828;23.478;2023-12-20T05:14:37;90402.78;;;2.08;100.00
9935;BME280;5006;41.828;23.478;2023-12-20T05:15:43;90390.66;;;2.07;100.00
9935;BME280;5006;41.828;23.478;2023-12-20T05:16:48;90394.06;;;2.08;100.00
9935;BME280;5006;41.828;23.478;2023-12-20T05:17:54;90387.59;;;1.93;100.00
9935;BME280;5006;41.828;23.478;2023-12-20T05:18:59;90399.28;;;1.92;100.00
9935;BME280;5006;41.828;23.478;2023-12-20T05:20:10;90394.63;;;2.01;100.00
9935;BME280;5006;41.828;23.478;2023-12-20T05:21:15;90389.91;;;1.83;100.00
9935;BME280;5006;41.828;23.478;2023-12-20T05:22:21;90382.19;;;1.78;100.00
9935;BME280;5006;41.828;23.478;2023-12-20T05:23:27;90384.59;;;2.07;100.00
9935;BME280;5006;41.828;23.478;2023-12-20T05:24:33;90387.59;;;1.93;100.00
9935;BME280;5006;41.828;23.478;2023-12-20T05:25:38;90386.28;;;1.87;100.00
9935;BME280;5006;41.828;23.478;2023-12-20T05:26:45;90384.94;;;1.93;100.00
9935;BME280;5006;41.828;23.478;2023-12-20T05:27:52;90385.81;;;1.97;100.00
9935;BME280;5006;41.828;23.478;2023-12-20T05:28:58;90390.03;;;1.98;100.00
9935;BME280;5006;41.828;23.478;2023-12-20T05:30:05;90380.97;;;2.11;100.00
9935;BME280;5006;41.828;23.478;2023-12-20T05:31:11;90383.81;;;2.06;100.00
9935;BME280;5006;41.828;23.478;2023-12-20T05:32:18;90377.09;;;2.08;100.00
9935;BME280;5006;41.828;23.478;2023-12-20T05:33:23;90381.84;;;2.15;100.00
9935;BME280;5006;41.828;23.478;2023-12-20T05:34:31;90374.44;;;2.20;100.00
9935;BME280;5006;41.828;23.478;2023-12-20T05:35:36;90379.94;;;2.15;100.00
9935;BME280;5006;41.828;23.478;2023-12-20T05:36:43;90375.13;;;2.17;100.00
9935;BME280;5006;41.828;23.478;2023-12-20T05:37:48;90375.75;;;2.14;100.00
9935;BME280;5006;41.828;23.478;2023-12-20T05:38:54;90373.06;;;1.99;100.00
9935;BME280;5006;41.828;23.478;2023-12-20T05:39:59;90371.69;;;2.17;100.00
9935;BME280;5006;41.828;23.478;2023-12-20T05:41:05;90381.94;;;2.18;100.00
9935;BME280;5006;41.828;23.478;2023-12-20T05:42:12;90374.75;;;2.19;100.00
9935;BME280;5006;41.828;23.478;2023-12-20T05:43:18;90378.66;;;2.09;100.00
9935;BME280;5006;41.828;23.478;2023-12-20T05:44:25;90374.00;;;2.18;100.00
9935;BME280;5006;41.828;23.478;2023-12-20T05:45:32;90372.38;;;2.02;100.00
9935;BME280;5006;41.828;23.478;2023-12-20T05:46:37;90376.88;;;2.02;100.00
9935;BME280;5006;41.828;23.478;2023-12-20T05:47:44;90383.06;;;2.17;100.00
9935;BME280;5006;41.828;23.478;2023-12-20T05:48:50;90374.09;;;2.10;100.00
9935;BME280;5006;41.828;23.478;2023-12-20T05:49:57;90375.97;;;2.21;100.00
9935;BME280;5006;41.828;23.478;2023-12-20T05:51:03;90368.78;;;2.22;100.00
9935;BME280;5006;41.828;23.478;2023-12-20T05:52:09;90370.22;;;2.31;100.00
9935;BME280;5006;41.828;23.478;2023-12-20T05:53:14;90369.94;;;2.48;100.00
9935;BME280;5006;41.828;23.478;2023-12-20T05:54:20;90370.19;;;2.43;100.00